Time;durP1;ratioP1;P1;durP2;ratioP2;P2;SDS_P1;SDS_P2;PMS_P1;PMS_P2;Temp;Humidity;BMP_temperature;BMP_pressure;BME280_temperature;BME280_humidity;BME280_pressure;Samples;Min_cycle;Max_cycle;Signal;HPM_P1;HPM_P2
2023/03/09 00:01:53;;;;;;;13.20;5.12;;;;;;;9.81;68.90;98745.31;1481178;88;21316;-80
2023/03/09 00:04:20;;;;;;;10.83;5.97;;;;;;;9.80;68.94;98752.91;1480226;88;22473;-80
2023/03/09 00:06:46;;;;;;;11.43;4.80;;;;;;;9.82;69.16;98753.55;1475835;88;21405;-80
2023/03/09 00:09:14;;;;;;;8.87;4.73;;;;;;;9.83;69.22;98742.47;1476279;88;22298;-80
2023/03/09 00:11:44;;;;;;;10.80;5.63;;;;;;;9.85;69.20;98745.25;1478789;88;21427;-80
2023/03/09 00:14:11;;;;;;;10.43;5.30;;;;;;;9.87;69.17;98745.08;1473731;88;21406;-80
2023/03/09 00:16:39;;;;;;;16.27;4.80;;;;;;;9.88;69.12;98739.59;1470188;88;21435;-80
2023/03/09 00:19:06;;;;;;;9.60;5.83;;;;;;;9.88;69.24;98741.42;1471666;88;21376;-81
2023/03/09 00:21:39;;;;;;;10.57;4.83;;;;;;;9.91;69.23;98735.27;1473686;88;21517;-81
2023/03/09 00:24:05;;;;;;;8.63;5.30;;;;;;;9.96;69.19;98743.16;1474376;86;22433;-80
2023/03/09 00:26:36;;;;;;;11.78;6.70;;;;;;;9.96;69.06;98734.72;1472758;88;21557;-80
2023/03/09 00:29:04;;;;;;;10.50;4.55;;;;;;;9.96;69.14;98745.29;1466923;88;21428;-80
2023/03/09 00:31:30;;;;;;;14.57;5.40;;;;;;;9.96;69.30;98736.55;1470789;88;21383;-80
2023/03/09 00:33:56;;;;;;;8.83;5.23;;;;;;;9.97;69.13;98743.46;1475171;88;22285;-79
2023/03/09 00:36:24;;;;;;;7.53;4.07;;;;;;;9.95;69.35;98743.63;1480784;88;21486;-79
2023/03/09 00:38:55;;;;;;;7.67;4.93;;;;;;;9.97;69.32;98744.78;1469426;88;21376;-79
2023/03/09 00:41:24;;;;;;;9.20;5.47;;;;;;;10.00;69.24;98732.52;1474735;88;21317;-79
2023/03/09 00:43:50;;;;;;;6.37;3.97;;;;;;;9.99;69.19;98729.06;1477794;88;21390;-79
2023/03/09 00:46:17;;;;;;;10.70;4.43;;;;;;;9.97;69.36;98735.02;1474924;88;22301;-79
2023/03/09 00:48:43;;;;;;;12.60;5.73;;;;;;;9.99;69.15;98722.96;1474924;88;21420;-80
2023/03/09 00:51:11;;;;;;;10.43;5.17;;;;;;;9.99;69.20;98722.96;1466271;88;21376;-81
2023/03/09 00:53:38;;;;;;;10.13;4.67;;;;;;;9.94;69.41;98720.36;1477975;88;21554;-80
2023/03/09 00:56:08;;;;;;;9.63;4.90;;;;;;;9.94;69.32;98719.03;1480458;88;21457;-80
2023/03/09 00:58:35;;;;;;;14.45;6.12;;;;;;;9.89;69.75;98713.48;1469558;88;22233;-78
2023/03/09 01:01:03;;;;;;;9.77;4.63;;;;;;;9.91;69.67;98708.84;1476738;88;21958;-80
2023/03/09 01:03:29;;;;;;;8.60;4.83;;;;;;;9.93;69.55;98705.52;1489720;86;21649;-79
2023/03/09 01:05:57;;;;;;;11.00;5.03;;;;;;;9.95;69.24;98701.34;1473800;88;21390;-79
2023/03/09 01:08:23;;;;;;;8.73;4.83;;;;;;;9.94;69.17;98696.57;1499162;86;21485;-79
2023/03/09 01:10:50;;;;;;;9.57;5.17;;;;;;;9.93;69.29;98692.81;1477632;88;21443;-79
2023/03/09 01:13:16;;;;;;;8.33;4.73;;;;;;;9.89;69.43;98695.48;1505868;86;21427;-80
2023/03/09 01:15:43;;;;;;;8.87;4.33;;;;;;;9.86;69.59;98703.28;1476551;88;22285;-79
2023/03/09 01:18:09;;;;;;;8.83;4.33;;;;;;;9.90;69.52;98715.14;1468985;88;21541;-80
2023/03/09 01:20:35;;;;;;;12.43;5.57;;;;;;;9.90;69.39;98719.61;1480675;88;21391;-79
2023/03/09 01:23:02;;;;;;;15.80;5.93;;;;;;;9.93;69.19;98719.23;1478410;88;21538;-79
2023/03/09 01:25:28;;;;;;;11.77;4.20;;;;;;;9.90;69.14;98730.99;1478404;88;21332;-81
2023/03/09 01:27:55;;;;;;;7.83;4.17;;;;;;;9.86;69.31;98723.09;1475377;88;21472;-81
2023/03/09 01:30:21;;;;;;;8.83;5.23;;;;;;;9.83;69.32;98718.19;1474087;88;21841;-80
2023/03/09 01:32:48;;;;;;;8.17;4.07;;;;;;;9.81;69.40;98725.97;1475504;88;21368;-80
2023/03/09 01:35:14;;;;;;;10.30;5.57;;;;;;;9.82;69.38;98724.98;1479124;88;21435;-81
2023/03/09 01:37:40;;;;;;;9.13;4.43;;;;;;;9.78;69.29;98732.47;1471140;88;21479;-80
2023/03/09 01:40:10;;;;;;;12.63;6.13;;;;;;;9.77;69.31;98725.53;1476156;88;21309;-81
2023/03/09 01:42:36;;;;;;;7.85;4.20;;;;;;;9.76;69.28;98733.14;1478171;88;21537;-80
2023/03/09 01:45:23;;;;;;;9.23;4.20;;;;;;;9.76;69.23;98742.91;1475034;88;22337;-80
2023/03/09 01:47:51;;;;;;;8.47;4.77;;;;;;;9.71;69.21;98743.44;1467940;88;22388;-80
2023/03/09 01:50:22;;;;;;;9.73;4.83;;;;;;;9.65;69.53;98744.98;1492325;88;21501;-80
2023/03/09 01:52:51;;;;;;;7.00;4.37;;;;;;;9.65;69.57;98750.78;1475315;88;21369;-80
2023/03/09 01:55:22;;;;;;;10.63;5.03;;;;;;;9.63;69.60;98750.95;1472044;88;21605;-79
2023/03/09 01:58:09;;;;;;;9.30;4.90;;;;;;;9.62;69.45;98751.95;1472666;88;21317;-80
2023/03/09 02:00:38;;;;;;;11.23;5.23;;;;;;;9.57;69.64;98753.50;1475147;88;21427;-79
2023/03/09 02:03:12;;;;;;;8.17;5.50;;;;;;;9.49;69.91;98746.00;1477483;88;21508;-79
2023/03/09 02:06:12;;;;;;;7.93;4.40;;;;;;;9.43;69.98;98741.92;1479076;88;22315;-80
2023/03/09 02:08:43;;;;;;;10.67;4.77;;;;;;;9.38;70.33;98737.68;1481463;88;21850;-79
2023/03/09 02:11:13;;;;;;;9.87;4.60;;;;;;;9.33;70.57;98732.96;1478934;88;21426;-80
2023/03/09 02:13:48;;;;;;;8.93;5.25;;;;;;;9.31;70.46;98733.63;1476593;88;21435;-80
2023/03/09 02:16:15;;;;;;;6.87;4.37;;;;;;;9.26;70.60;98723.64;1484707;88;21346;-80
2023/03/09 02:18:41;;;;;;;10.67;5.47;;;;;;;9.19;71.01;98724.53;1473694;88;22322;-80
2023/03/09 02:21:30;;;;;;;9.03;5.30;;;;;;;9.17;71.20;98713.32;1499887;86;21399;-80
2023/03/09 02:24:10;;;;;;;11.80;5.80;;;;;;;9.13;71.18;98713.37;1476765;88;22380;-80
2023/03/09 02:26:42;;;;;;;8.20;4.17;;;;;;;9.08;71.43;98707.81;1476264;88;22262;-81
2023/03/09 02:29:09;;;;;;;13.03;5.53;;;;;;;9.06;71.68;98701.38;1476809;88;22337;-80
2023/03/09 02:31:35;;;;;;;11.53;4.77;;;;;;;9.04;71.64;98689.69;1471329;88;21390;-80
2023/03/09 02:34:02;;;;;;;9.73;4.83;;;;;;;9.02;71.84;98690.37;1475030;88;22470;-79
2023/03/09 02:36:28;;;;;;;9.00;5.33;;;;;;;9.03;71.26;98692.50;1479640;88;21398;-80
2023/03/09 02:38:58;;;;;;;10.97;5.00;;;;;;;8.99;71.78;98690.73;1476191;88;21443;-80
2023/03/09 02:41:24;;;;;;;10.10;5.07;;;;;;;8.97;72.12;98682.16;1474968;88;21568;-80
2023/03/09 02:43:55;;;;;;;16.50;5.53;;;;;;;8.99;72.08;98682.00;1482470;88;21442;-80
2023/03/09 02:46:21;;;;;;;10.28;5.28;;;;;;;8.97;72.17;98684.80;1474274;88;21406;-80
2023/03/09 02:48:47;;;;;;;11.47;6.70;;;;;;;8.99;71.99;98682.00;1472084;88;22285;-80
2023/03/09 02:51:14;;;;;;;8.80;4.63;;;;;;;8.98;71.83;98683.82;1468755;88;21339;-79
2023/03/09 02:53:41;;;;;;;9.90;5.37;;;;;;;8.98;71.80;98681.19;1503986;86;21420;-80
2023/03/09 02:56:08;;;;;;;10.57;5.20;;;;;;;8.98;72.01;98684.33;1481380;88;21576;-80
2023/03/09 02:58:35;;;;;;;13.57;5.10;;;;;;;8.98;72.11;98679.86;1481024;88;21325;-79
2023/03/09 03:01:01;;;;;;;10.27;5.73;;;;;;;9.00;72.02;98680.48;1481764;88;21428;-79
2023/03/09 03:03:27;;;;;;;8.90;4.60;;;;;;;9.01;71.87;98694.02;1474456;88;21391;-80
2023/03/09 03:05:54;;;;;;;8.40;5.30;;;;;;;9.03;71.76;98690.70;1474533;88;21346;-80
2023/03/09 03:08:20;;;;;;;10.50;4.93;;;;;;;9.04;71.63;98694.16;1475752;88;21391;-80
2023/03/09 03:10:46;;;;;;;11.63;5.37;;;;;;;9.02;71.82;98693.00;1475458;88;21259;-79
2023/03/09 03:13:12;;;;;;;9.40;5.27;;;;;;;9.07;71.72;98685.88;1476851;88;21397;-80
2023/03/09 03:15:38;;;;;;;8.60;6.07;;;;;;;9.09;71.69;98682.57;1479237;88;21346;-80
2023/03/09 03:18:05;;;;;;;9.50;5.10;;;;;;;9.12;71.47;98681.36;1483771;88;21855;-78
2023/03/09 03:20:31;;;;;;;9.17;4.57;;;;;;;9.14;71.36;98675.41;1481482;88;21331;-80
2023/03/09 03:22:57;;;;;;;10.20;5.67;;;;;;;9.14;71.31;98667.49;1475420;88;22800;-78
2023/03/09 03:25:23;;;;;;;12.47;4.80;;;;;;;9.17;71.09;98677.69;1505704;86;21331;-79
2023/03/09 03:27:49;;;;;;;7.57;4.17;;;;;;;9.17;71.10;98668.45;1477976;88;21470;-78
2023/03/09 03:30:16;;;;;;;9.77;5.40;;;;;;;9.18;71.17;98670.11;1473733;88;22329;-78
2023/03/09 03:32:42;;;;;;;8.00;4.57;;;;;;;9.21;71.29;98677.16;1474296;88;21502;-78
2023/03/09 03:35:09;;;;;;;13.80;4.90;;;;;;;9.24;71.04;98672.02;1472217;88;21354;-78
2023/03/09 03:37:35;;;;;;;9.43;6.00;;;;;;;9.24;70.97;98664.09;1480752;88;21524;-78
2023/03/09 03:40:06;;;;;;;9.53;5.50;;;;;;;9.26;70.67;98666.87;1479141;88;21362;-78
2023/03/09 03:42:31;;;;;;;12.15;5.40;;;;;;;9.28;70.69;98662.72;1473686;88;22306;-79
2023/03/09 03:44:57;;;;;;;8.77;4.83;;;;;;;9.30;70.63;98659.41;1480128;88;21444;-80
2023/03/09 03:47:24;;;;;;;7.90;4.37;;;;;;;9.31;70.51;98651.80;1483400;88;21486;-80
2023/03/09 03:49:50;;;;;;;8.93;4.20;;;;;;;9.34;70.37;98656.70;1476694;88;21590;-79
2023/03/09 03:52:16;;;;;;;7.57;4.30;;;;;;;9.38;70.20;98656.67;1474212;88;22270;-80
2023/03/09 03:54:43;;;;;;;7.83;4.20;;;;;;;9.38;70.21;98666.39;1470869;88;21567;-79
2023/03/09 03:57:09;;;;;;;6.70;4.03;;;;;;;9.37;70.09;98662.94;1476152;88;21324;-80
2023/03/09 03:59:35;;;;;;;9.00;4.20;;;;;;;9.35;70.10;98657.05;1476998;88;21332;-79
2023/03/09 04:02:01;;;;;;;8.37;4.23;;;;;;;9.33;70.12;98668.28;1472375;88;21524;-80
2023/03/09 04:04:28;;;;;;;10.33;4.90;;;;;;;9.33;70.14;98664.83;1477080;88;21505;-80
2023/03/09 04:06:54;;;;;;;7.33;4.57;;;;;;;9.33;70.24;98668.28;1478249;88;22795;-79
2023/03/09 04:09:20;;;;;;;8.23;4.77;;;;;;;9.31;70.18;98652.30;1481173;88;21442;-80
2023/03/09 04:11:49;;;;;;;7.53;4.40;;;;;;;9.32;70.05;98657.41;1469666;88;21479;-79
2023/03/09 04:14:15;;;;;;;7.07;4.43;;;;;;;9.31;70.10;98660.22;1479678;88;21612;-80
2023/03/09 04:16:41;;;;;;;11.10;4.97;;;;;;;9.28;70.20;98655.30;1475474;88;22301;-80
2023/03/09 04:19:07;;;;;;;7.77;4.37;;;;;;;9.28;70.11;98662.72;1486953;88;21412;-81
2023/03/09 04:21:34;;;;;;;7.00;4.03;;;;;;;9.28;70.19;98657.44;1475717;88;21471;-80
2023/03/09 04:24:00;;;;;;;9.20;4.33;;;;;;;9.29;70.28;98656.42;1484358;88;21390;-79
2023/03/09 04:26:26;;;;;;;10.10;4.90;;;;;;;9.29;70.11;98660.39;1473259;88;21471;-80
2023/03/09 04:28:52;;;;;;;9.33;5.07;;;;;;;9.29;70.03;98661.70;1480346;88;21464;-78
2023/03/09 04:31:18;;;;;;;9.93;5.07;;;;;;;9.30;69.86;98670.47;1483902;88;21561;-79
2023/03/09 04:33:44;;;;;;;8.57;4.60;;;;;;;9.31;69.81;98662.86;1472955;88;21442;-79
2023/03/09 04:36:11;;;;;;;10.03;5.10;;;;;;;9.30;69.82;98668.64;1481869;88;21383;-79
2023/03/09 04:38:37;;;;;;;11.67;4.80;;;;;;;9.30;69.70;98655.45;1485843;88;21461;-80
2023/03/09 04:41:04;;;;;;;8.97;4.40;;;;;;;9.33;69.84;98651.63;1469105;88;22587;-78
2023/03/09 04:43:30;;;;;;;15.67;5.50;;;;;;;9.34;69.70;98647.47;1475001;88;21405;-79
2023/03/09 04:45:56;;;;;;;6.87;4.07;;;;;;;9.34;69.66;98649.30;1486585;88;22212;-78
2023/03/09 04:48:22;;;;;;;12.20;5.30;;;;;;;9.39;69.45;98650.38;1478348;88;21368;-79
2023/03/09 04:50:49;;;;;;;6.03;4.57;;;;;;;9.39;69.45;98650.38;1475435;88;21368;-79
2023/03/09 04:53:15;;;;;;;7.57;3.80;;;;;;;9.39;69.46;98647.74;1474382;88;22366;-79
2023/03/09 04:55:42;;;;;;;10.93;3.80;;;;;;;9.39;69.51;98643.78;1486492;88;21363;-79
2023/03/09 04:58:08;;;;;;;14.20;4.40;;;;;;;9.39;69.53;98637.69;1477992;88;21324;-79
2023/03/09 05:00:34;;;;;;;7.07;3.50;;;;;;;9.40;69.70;98642.77;1477429;88;21420;-80
2023/03/09 05:03:00;;;;;;;9.17;3.63;;;;;;;9.43;69.65;98649.00;1464541;88;21487;-79
2023/03/09 05:05:27;;;;;;;11.27;3.40;;;;;;;9.46;69.49;98640.71;1469923;88;22155;-80
2023/03/09 05:07:53;;;;;;;14.33;4.40;;;;;;;9.47;69.46;98642.88;1483083;88;21539;-79
2023/03/09 05:10:19;;;;;;;7.50;3.87;;;;;;;9.46;69.46;98638.07;1479885;88;21449;-80
2023/03/09 05:12:45;;;;;;;12.73;4.20;;;;;;;9.47;69.40;98626.52;1474257;88;21360;-79
2023/03/09 05:15:12;;;;;;;6.30;3.90;;;;;;;9.47;69.46;98624.39;1477484;88;22465;-79
2023/03/09 05:17:38;;;;;;;8.07;3.13;;;;;;;9.45;69.61;98629.84;1477139;88;21331;-80
2023/03/09 05:20:09;;;;;;;6.03;3.50;;;;;;;9.44;69.82;98632.69;1479161;88;22249;-79
2023/03/09 05:22:34;;;;;;;7.87;3.40;;;;;;;9.48;69.82;98628.16;1489248;86;21391;-80
2023/03/09 05:25:00;;;;;;;7.57;4.33;;;;;;;9.52;69.59;98639.66;1483163;88;22292;-80
2023/03/09 05:27:26;;;;;;;9.57;3.50;;;;;;;9.53;69.52;98639.49;1473265;88;21495;-80
2023/03/09 05:29:52;;;;;;;4.50;3.27;;;;;;;9.55;69.45;98642.78;1467734;88;21384;-81
2023/03/09 05:32:19;;;;;;;10.43;3.67;;;;;;;9.52;69.58;98644.95;1475560;88;22314;-80
2023/03/09 05:34:46;;;;;;;17.20;5.20;;;;;;;9.52;69.65;98642.30;1481367;88;21825;-81
2023/03/09 05:37:13;;;;;;;8.90;3.73;;;;;;;9.49;69.76;98639.05;1483185;88;21487;-81
2023/03/09 05:39:39;;;;;;;5.30;3.20;;;;;;;9.54;69.75;98629.74;1477494;88;21516;-82
2023/03/09 05:42:06;;;;;;;10.20;4.23;;;;;;;9.52;69.64;98622.50;1478496;88;21324;-82
2023/03/09 05:44:32;;;;;;;12.67;3.60;;;;;;;9.56;69.42;98619.82;1465199;88;21405;-81
2023/03/09 05:46:59;;;;;;;27.63;3.93;;;;;;;9.58;69.40;98610.72;1479191;88;21457;-82
2023/03/09 05:49:27;;;;;;;8.57;3.83;;;;;;;9.60;69.31;98614.47;1458648;88;22330;-81
2023/03/09 05:51:54;;;;;;;8.60;4.70;;;;;;;9.59;69.30;98624.73;1476897;86;22366;-80
2023/03/09 05:54:22;;;;;;;10.20;4.20;;;;;;;9.60;69.23;98617.11;1482018;88;21517;-80
2023/03/09 05:56:48;;;;;;;8.57;3.77;;;;;;;9.62;69.31;98624.36;1480380;88;21332;-80
2023/03/09 05:59:15;;;;;;;10.23;3.63;;;;;;;9.64;69.20;98626.33;1478350;88;21629;-79
2023/03/09 06:01:43;;;;;;;10.30;4.00;;;;;;;9.69;69.06;98629.20;1474765;88;21338;-80
2023/03/09 06:04:09;;;;;;;9.93;4.40;;;;;;;9.69;68.97;98607.56;1473395;88;22366;-79
2023/03/09 06:06:35;;;;;;;8.53;4.20;;;;;;;9.73;69.01;98605.39;1472736;88;21910;-80
2023/03/09 06:09:01;;;;;;;11.53;4.70;;;;;;;9.75;68.92;98606.00;1476657;88;21605;-80
2023/03/09 06:11:27;;;;;;;6.67;3.73;;;;;;;9.74;69.01;98597.77;1502587;86;22175;-81
2023/03/09 06:13:54;;;;;;;9.20;3.53;;;;;;;9.79;69.01;98598.03;1477045;88;21383;-81
2023/03/09 06:16:21;;;;;;;7.93;2.87;;;;;;;9.82;69.22;98583.63;1470354;88;22322;-80
2023/03/09 06:18:47;;;;;;;21.67;4.40;;;;;;;9.87;68.98;98583.39;1475364;88;22092;-83
2023/03/09 06:21:14;;;;;;;7.10;3.40;;;;;;;9.91;68.92;98587.78;1470664;88;21340;-81
2023/03/09 06:23:40;;;;;;;7.43;3.83;;;;;;;9.96;68.76;98605.73;1474019;88;21391;-81
2023/03/09 06:26:11;;;;;;;5.17;3.47;;;;;;;9.98;68.73;98587.84;1471257;88;21442;-83
2023/03/09 06:28:37;;;;;;;8.53;4.42;;;;;;;9.99;68.64;98591.63;1480262;88;22433;-82
2023/03/09 06:31:12;;;;;;;15.50;3.70;;;;;;;10.05;68.69;98603.28;1465548;88;21398;-84
2023/03/09 06:33:40;;;;;;;13.53;3.70;;;;;;;10.09;68.72;98604.52;1482966;88;21332;-84
2023/03/09 06:36:09;;;;;;;13.27;4.03;;;;;;;10.12;68.56;98610.75;1488367;88;22246;-83
2023/03/09 06:38:35;;;;;;;11.47;4.13;;;;;;;10.17;68.61;98610.50;1499003;86;22032;-82
2023/03/09 06:41:01;;;;;;;12.10;3.10;;;;;;;10.23;68.45;98594.89;1468158;88;22278;-84
2023/03/09 06:43:31;;;;;;;7.37;3.97;;;;;;;10.26;68.47;98607.73;1482075;88;21425;-83
2023/03/09 06:45:57;;;;;;;8.60;4.33;;;;;;;10.28;68.39;98608.41;1480394;88;21368;-86
2023/03/09 06:48:23;;;;;;;9.00;3.80;;;;;;;10.34;68.26;98601.84;1477086;88;21383;-86
2023/03/09 06:50:50;;;;;;;8.87;4.00;;;;;;;10.39;68.16;98586.23;1467982;88;21553;-87
2023/03/09 06:53:16;;;;;;;7.60;3.87;;;;;;;10.47;68.19;98583.95;1477203;88;22247;-84
2023/03/09 06:55:48;;;;;;;7.90;3.57;;;;;;;10.52;68.22;98598.72;1481987;86;21494;-83
2023/03/09 06:58:14;;;;;;;4.57;2.83;;;;;;;10.57;68.08;98612.71;1481863;88;21347;-85
2023/03/09 07:00:43;;;;;;;6.27;3.13;;;;;;;10.58;67.75;98611.69;1474096;88;21539;-82
2023/03/09 07:03:17;;;;;;;16.67;4.40;;;;;;;10.59;67.68;98621.28;1477618;88;21317;-85
2023/03/09 07:05:43;;;;;;;7.47;3.23;;;;;;;10.59;67.72;98621.28;1468993;88;21295;-85
2023/03/09 07:08:10;;;;;;;3.50;2.67;;;;;;;10.59;67.78;98618.64;1468699;88;21428;-86
2023/03/09 07:10:36;;;;;;;10.63;4.43;;;;;;;10.59;67.69;98598.80;1474258;88;21434;-85
2023/03/09 07:13:02;;;;;;;5.70;2.87;;;;;;;10.63;67.71;98589.45;1475538;88;21833;-83
2023/03/09 07:15:29;;;;;;;6.87;3.83;;;;;;;10.72;67.76;98591.44;1477010;88;22343;-84
2023/03/09 07:17:55;;;;;;;5.40;2.87;;;;;;;10.81;67.54;98585.80;1474140;88;21391;-85
2023/03/09 07:20:23;;;;;;;193.07;13.33;;;;;;;10.95;67.16;98602.58;1475612;88;21366;-84
2023/03/09 07:22:49;;;;;;;11.13;3.77;;;;;;;11.07;66.97;98594.91;1479846;88;21360;-85
2023/03/09 07:25:16;;;;;;;6.23;3.47;;;;;;;11.22;66.41;98604.89;1499668;86;21459;-84
2023/03/09 07:27:42;;;;;;;8.53;3.27;;;;;;;11.24;65.75;98612.11;1476496;88;21530;-84
2023/03/09 07:30:10;;;;;;;7.47;4.00;;;;;;;11.34;65.83;98609.63;1476957;88;22374;-85
2023/03/09 07:32:36;;;;;;;6.60;3.70;;;;;;;11.36;65.48;98609.72;1476783;88;22390;-83
2023/03/09 07:35:03;;;;;;;9.30;3.90;;;;;;;11.37;65.25;98614.53;1470201;88;21413;-86
2023/03/09 07:37:29;;;;;;;12.33;4.73;;;;;;;11.38;65.40;98621.45;1474011;88;21568;-85
2023/03/09 07:39:55;;;;;;;8.07;3.53;;;;;;;11.34;65.46;98612.28;1475072;88;21603;-86
2023/03/09 07:42:22;;;;;;;10.20;3.80;;;;;;;11.30;65.66;98607.86;1480218;88;22521;-87
2023/03/09 07:44:48;;;;;;;7.47;3.00;;;;;;;11.34;65.94;98600.36;1476682;88;21450;-87
2023/03/09 07:47:14;;;;;;;12.03;4.20;;;;;;;11.36;65.99;98606.26;1475723;88;21664;-85
2023/03/09 07:49:41;;;;;;;8.33;3.43;;;;;;;11.34;66.07;98620.23;1476530;88;21428;-86
2023/03/09 07:52:07;;;;;;;8.83;4.50;;;;;;;11.34;66.21;98623.69;1478626;88;22544;-85
2023/03/09 07:54:34;;;;;;;14.17;4.40;;;;;;;11.32;66.31;98631.52;1476826;88;21442;-85
2023/03/09 07:57:01;;;;;;;8.87;3.80;;;;;;;11.34;66.43;98626.84;1479498;88;22174;-87
2023/03/09 07:59:27;;;;;;;17.07;4.70;;;;;;;11.37;66.68;98624.62;1477855;88;21509;-85
2023/03/09 08:01:53;;;;;;;9.20;3.63;;;;;;;11.42;66.64;98642.06;1462254;88;21361;-84
2023/03/09 08:04:19;;;;;;;8.53;3.50;;;;;;;11.42;66.60;98639.91;1460342;88;21376;-85
2023/03/09 08:06:45;;;;;;;15.53;3.97;;;;;;;11.42;67.10;98647.84;1482742;88;22514;-86
2023/03/09 08:09:15;;;;;;;10.07;4.20;;;;;;;11.43;67.21;98664.08;1476581;88;21405;-83
2023/03/09 08:11:43;;;;;;;12.63;4.27;;;;;;;11.42;67.16;98655.31;1397367;88;21273;-84
2023/03/09 08:14:11;;;;;;;12.50;3.23;;;;;;;11.47;67.09;98660.00;1397953;88;21342;-86
2023/03/09 08:16:38;;;;;;;7.73;3.60;;;;;;;11.50;67.04;98657.77;1404744;88;21353;-85
2023/03/09 08:19:04;;;;;;;9.17;3.67;;;;;;;11.52;67.03;98658.41;1400564;88;21213;-83
2023/03/09 08:21:30;;;;;;;11.13;3.57;;;;;;;11.56;67.17;98668.61;1401524;88;21420;-87
2023/03/09 08:23:59;;;;;;;9.47;3.53;;;;;;;11.60;67.15;98664.05;1401228;88;21288;-85
2023/03/09 08:26:25;;;;;;;8.10;3.37;;;;;;;11.59;67.13;98669.53;1403879;88;21301;-85
2023/03/09 08:28:51;;;;;;;6.70;3.13;;;;;;;11.57;67.01;98661.80;1400696;88;21391;-85
2023/03/09 08:31:18;;;;;;;30.93;3.40;;;;;;;11.60;66.65;98658.75;1544150;88;21362;-84
2023/03/09 08:33:45;;;;;;;11.20;3.60;;;;;;;11.59;66.89;98678.30;1400566;88;21243;-86
2023/03/09 08:36:17;;;;;;;7.47;3.40;;;;;;;11.51;66.94;98671.34;1406147;88;21273;-86
2023/03/09 08:38:45;;;;;;;7.07;3.83;;;;;;;11.49;67.26;98680.50;1562303;88;21207;-85
2023/03/09 08:41:12;;;;;;;8.87;3.63;;;;;;;11.45;67.42;98674.79;1398726;88;21236;-85
2023/03/09 08:43:39;;;;;;;9.17;3.10;;;;;;;11.45;67.70;98665.52;1399971;88;21541;-86
2023/03/09 08:46:06;;;;;;;5.43;3.00;;;;;;;11.51;68.17;98651.99;1400730;88;21259;-84
2023/03/09 08:48:32;;;;;;;9.87;3.27;;;;;;;11.58;67.91;98645.39;1406236;88;21347;-84
2023/03/09 08:51:05;;;;;;;7.53;3.73;;;;;;;11.71;67.87;98642.29;1468784;88;21479;-84
2023/03/09 08:53:32;;;;;;;9.50;3.40;;;;;;;11.79;68.09;98653.72;1561468;86;22058;-84
2023/03/09 08:56:00;;;;;;;8.13;3.60;;;;;;;11.73;68.09;98658.79;1400158;88;21340;-84
2023/03/09 08:58:27;;;;;;;8.63;3.23;;;;;;;11.73;68.03;98653.48;1424550;86;21339;-86
2023/03/09 09:00:53;;;;;;;9.33;3.50;;;;;;;11.73;67.88;98640.23;1476877;88;21354;-84
2023/03/09 09:03:19;;;;;;;12.13;4.07;;;;;;;11.78;67.96;98650.77;1477811;88;21650;-87
2023/03/09 09:05:46;;;;;;;10.10;3.43;;;;;;;11.96;67.62;98637.28;1477685;88;21369;-87
2023/03/09 09:08:12;;;;;;;9.47;3.47;;;;;;;12.15;67.38;98630.41;1510560;88;21316;-84
2023/03/09 09:10:44;;;;;;;10.03;3.40;;;;;;;12.33;66.48;98638.28;1410352;88;21265;-86
2023/03/09 09:13:10;;;;;;;7.43;3.93;;;;;;;12.46;65.71;98630.83;1396446;86;21625;-86
2023/03/09 09:15:39;;;;;;;8.80;3.37;;;;;;;12.54;65.00;98638.59;1450828;88;21383;-84
2023/03/09 09:18:06;;;;;;;9.27;3.60;;;;;;;12.68;65.03;98626.14;1474284;88;21340;-85
2023/03/09 09:20:33;;;;;;;6.87;3.37;;;;;;;12.78;64.06;98626.56;1472482;88;21361;-86
2023/03/09 09:23:08;;;;;;;13.37;3.37;;;;;;;12.90;63.53;98628.08;1475333;88;21539;-85
2023/03/09 09:25:34;;;;;;;6.23;2.97;;;;;;;12.93;63.28;98607.75;1478844;88;21294;-84
2023/03/09 09:28:01;;;;;;;13.90;4.47;;;;;;;13.05;63.27;98622.02;1470568;88;21428;-85
2023/03/09 09:30:27;;;;;;;7.10;3.07;;;;;;;13.02;62.96;98615.80;1473505;88;22496;-94
2023/03/09 09:32:54;;;;;;;7.57;3.20;;;;;;;13.02;62.55;98623.25;1482258;88;21384;-93
2023/03/09 09:35:20;;;;;;;5.30;2.77;;;;;;;13.04;62.66;98617.22;1479644;88;21539;-87
2023/03/09 09:37:46;;;;;;;16.67;5.43;;;;;;;13.08;63.03;98608.32;1474872;88;21449;-82
2023/03/09 09:40:14;;;;;;;11.37;3.37;;;;;;;13.14;63.11;98611.98;1499295;86;21332;-84
2023/03/09 09:42:43;;;;;;;14.40;2.90;;;;;;;13.14;62.56;98608.00;1476079;88;21464;-84
2023/03/09 09:45:32;;;;;;;8.50;3.03;;;;;;;13.03;62.63;98610.29;1475950;88;21465;-81
2023/03/09 09:48:04;;;;;;;13.93;4.27;;;;;;;12.95;62.62;98622.45;1476976;88;22353;-83
2023/03/09 09:51:05;;;;;;;5.53;3.37;;;;;;;12.88;63.02;98595.08;1480352;88;21434;-85
2023/03/09 09:53:41;;;;;;;;;;;;;;;12.89;63.04;98604.70;1480906;88;22367;-81
2023/03/09 09:56:12;;;;;;;11.47;2.80;;;;;;;12.95;63.18;98595.91;1475464;88;20282;-81
2023/03/09 09:58:52;;;;;;;12.97;2.87;;;;;;;13.01;63.09;98604.36;1469760;88;21383;-80
2023/03/09 10:01:57;;;;;;;14.20;3.53;;;;;;;13.06;62.72;98608.55;1561555;88;21421;-82
2023/03/09 10:04:28;;;;;;;13.70;3.30;;;;;;;13.14;62.67;98588.08;1560681;88;21390;-80
2023/03/09 10:06:59;;;;;;;6.17;2.77;;;;;;;13.16;62.63;98591.36;1552400;88;21377;-79
2023/03/09 10:09:30;;;;;;;11.12;2.95;;;;;;;13.13;62.69;98611.70;1502207;88;22124;-83
2023/03/09 10:12:02;;;;;;;7.70;2.83;;;;;;;13.12;62.92;98611.37;1396488;88;22391;-81
2023/03/09 10:14:45;;;;;;;5.57;2.50;;;;;;;13.13;62.89;98605.86;1397846;88;22279;-80
2023/03/09 10:17:20;;;;;;;7.70;2.77;;;;;;;13.12;62.80;98620.17;1555329;88;21281;-81
2023/03/09 10:19:49;;;;;;;4.37;2.77;;;;;;;13.13;62.90;98619.66;1561627;88;21281;-81
2023/03/09 10:22:23;;;;;;;10.57;4.07;;;;;;;13.15;62.94;98628.22;1398098;88;21480;-81
2023/03/09 10:24:52;;;;;;;9.67;3.43;;;;;;;13.18;62.76;98636.61;1561633;88;21162;-80
2023/03/09 10:27:33;;;;;;;12.80;3.10;;;;;;;13.27;62.69;98633.25;1403250;88;21270;-81
2023/03/09 10:30:20;;;;;;;9.33;2.83;;;;;;;13.32;62.51;98658.65;1468131;88;21376;-79
2023/03/09 10:33:09;;;;;;;11.67;3.53;;;;;;;13.33;62.25;98651.00;1561617;88;21222;-81
2023/03/09 10:35:56;;;;;;;5.80;2.77;;;;;;;13.26;62.38;98666.97;1562014;88;21476;-80
2023/03/09 10:38:23;;;;;;;5.90;3.07;;;;;;;13.23;62.51;98678.47;1561763;88;21207;-82
2023/03/09 10:40:55;;;;;;;5.00;2.70;;;;;;;13.12;62.92;98679.09;1400095;88;21226;-81
2023/03/09 10:43:34;;;;;;;12.53;2.97;;;;;;;13.07;64.01;98695.16;1561608;88;21252;-82
2023/03/09 10:46:18;;;;;;;8.27;3.07;;;;;;;12.93;65.81;98688.22;1402041;88;21324;-82
2023/03/09 10:48:46;;;;;;;14.30;3.30;;;;;;;12.83;67.69;98693.11;1551735;88;21133;-80
2023/03/09 10:51:36;;;;;;;5.27;2.37;;;;;;;12.69;68.47;98684.34;1398770;88;21340;-81
2023/03/09 10:54:27;;;;;;;5.50;2.47;;;;;;;12.53;69.39;98688.20;1561620;88;21274;-81
2023/03/09 10:56:53;;;;;;;;;;;;;;;12.38;70.81;98687.06;1416851;88;21516;-80
2023/03/09 10:59:25;;;;;;;7.93;3.67;;;;;;;12.11;75.40;98680.89;1400788;88;20247;-81
2023/03/09 11:01:57;;;;;;;7.17;3.37;;;;;;;11.97;76.69;98685.84;1555661;88;21155;-80
2023/03/09 11:04:31;;;;;;;5.87;3.17;;;;;;;11.89;77.39;98670.11;1555658;88;22102;-78
2023/03/09 11:07:06;;;;;;;9.63;4.30;;;;;;;11.80;77.16;98672.59;1396165;89;22184;-80
2023/03/09 11:09:43;;;;;;;8.10;4.00;;;;;;;11.70;79.53;98659.70;1405723;89;22324;-80
2023/03/09 11:12:33;;;;;;;10.17;5.00;;;;;;;11.65;79.60;98640.44;1555385;88;21527;-80
2023/03/09 11:15:04;;;;;;;12.10;4.55;;;;;;;11.65;80.20;98634.30;1561720;88;21295;-80
2023/03/09 11:17:46;;;;;;;7.63;4.20;;;;;;;11.69;79.97;98633.72;1561434;88;21648;-79
2023/03/09 11:20:32;;;;;;;6.77;3.47;;;;;;;11.75;80.32;98624.16;1406207;88;21295;-79
2023/03/09 11:23:15;;;;;;;9.67;4.73;;;;;;;11.89;79.59;98629.02;1585606;86;21170;-79
2023/03/09 11:25:50;;;;;;;10.80;4.33;;;;;;;12.04;79.65;98636.29;1587232;86;22044;-80
2023/03/09 11:28:38;;;;;;;12.67;4.43;;;;;;;12.14;79.35;98618.17;1561598;88;21303;-81
2023/03/09 11:31:27;;;;;;;11.50;3.20;;;;;;;12.22;78.18;98616.33;1555910;88;21339;-80
2023/03/09 11:33:57;;;;;;;9.70;4.57;;;;;;;12.29;77.26;98613.19;1559679;88;21317;-81
2023/03/09 11:36:41;;;;;;;9.70;4.33;;;;;;;12.41;76.41;98631.45;1396715;88;22316;-79
2023/03/09 11:39:13;;;;;;;8.73;4.97;;;;;;;12.51;76.02;98625.73;1400437;89;21280;-80
2023/03/09 11:41:42;;;;;;;6.40;3.90;;;;;;;12.61;75.27;98629.63;1559449;88;21251;-80
2023/03/09 11:44:23;;;;;;;7.23;3.70;;;;;;;12.78;74.18;98634.52;1397322;88;21332;-80